sensor_id;sensor_type;location;lat;lon;timestamp;P1;durP1;ratioP1;P2;durP2;ratioP2
7215;SDS011;3649;48.798;9.798;2022-08-21T00:00:08;3.77;;;3.47;;
7215;SDS011;3649;48.798;9.798;2022-08-21T00:02:47;7.73;;;3.20;;
7215;SDS011;3649;48.798;9.798;2022-08-21T00:05:17;3.30;;;3.00;;
7215;SDS011;3649;48.798;9.798;2022-08-21T00:07:44;4.33;;;3.27;;
7215;SDS011;3649;48.798;9.798;2022-08-21T00:10:11;13.47;;;3.43;;
7215;SDS011;3649;48.798;9.798;2022-08-21T00:12:38;5.33;;;3.23;;
7215;SDS011;3649;48.798;9.798;2022-08-21T00:15:07;6.77;;;3.60;;
7215;SDS011;3649;48.798;9.798;2022-08-21T00:17:36;3.60;;;2.60;;
7215;SDS011;3649;48.798;9.798;2022-08-21T00:20:05;4.70;;;2.70;;
7215;SDS011;3649;48.798;9.798;2022-08-21T00:22:35;5.30;;;2.40;;
7215;SDS011;3649;48.798;9.798;2022-08-21T00:25:06;2.07;;;1.97;;
7215;SDS011;3649;48.798;9.798;2022-08-21T00:27:34;6.07;;;2.30;;
7215;SDS011;3649;48.798;9.798;2022-08-21T00:30:03;2.33;;;2.23;;
7215;SDS011;3649;48.798;9.798;2022-08-21T00:32:32;2.30;;;2.10;;
7215;SDS011;3649;48.798;9.798;2022-08-21T00:34:59;5.33;;;3.00;;
7215;SDS011;3649;48.798;9.798;2022-08-21T00:37:26;5.40;;;2.90;;
7215;SDS011;3649;48.798;9.798;2022-08-21T00:39:55;2.83;;;2.63;;
7215;SDS011;3649;48.798;9.798;2022-08-21T00:42:22;5.87;;;2.87;;
7215;SDS011;3649;48.798;9.798;2022-08-21T00:44:49;3.50;;;3.00;;
7215;SDS011;3649;48.798;9.798;2022-08-21T00:47:17;6.20;;;2.73;;
7215;SDS011;3649;48.798;9.798;2022-08-21T00:49:46;6.10;;;3.10;;
7215;SDS011;3649;48.798;9.798;2022-08-21T00:52:15;4.97;;;4.03;;
7215;SDS011;3649;48.798;9.798;2022-08-21T00:54:45;6.20;;;3.60;;
7215;SDS011;3649;48.798;9.798;2022-08-21T00:57:16;5.77;;;3.30;;
7215;SDS011;3649;48.798;9.798;2022-08-21T00:59:50;6.17;;;3.30;;
7215;SDS011;3649;48.798;9.798;2022-08-21T01:02:19;6.87;;;2.90;;
7215;SDS011;3649;48.798;9.798;2022-08-21T01:04:46;4.57;;;3.00;;
7215;SDS011;3649;48.798;9.798;2022-08-21T01:07:14;5.37;;;2.93;;
7215;SDS011;3649;48.798;9.798;2022-08-21T01:09:41;9.80;;;3.10;;
7215;SDS011;3649;48.798;9.798;2022-08-21T01:12:09;4.37;;;3.47;;
7215;SDS011;3649;48.798;9.798;2022-08-21T01:14:37;3.87;;;2.80;;
7215;SDS011;3649;48.798;9.798;2022-08-21T01:17:05;2.90;;;2.70;;
7215;SDS011;3649;48.798;9.798;2022-08-21T01:19:33;2.70;;;2.50;;
7215;SDS011;3649;48.798;9.798;2022-08-21T01:22:00;5.53;;;2.80;;
7215;SDS011;3649;48.798;9.798;2022-08-21T01:24:27;6.13;;;3.07;;
7215;SDS011;3649;48.798;9.798;2022-08-21T01:26:54;8.80;;;3.00;;
7215;SDS011;3649;48.798;9.798;2022-08-21T01:32:02;5.43;;;4.33;;
7215;SDS011;3649;48.798;9.798;2022-08-21T01:34:33;6.53;;;4.10;;
7215;SDS011;3649;48.798;9.798;2022-08-21T01:37:02;4.73;;;3.47;;
7215;SDS011;3649;48.798;9.798;2022-08-21T01:39:29;4.63;;;3.60;;
7215;SDS011;3649;48.798;9.798;2022-08-21T01:41:57;3.70;;;3.20;;
7215;SDS011;3649;48.798;9.798;2022-08-21T01:44:24;4.67;;;3.27;;
7215;SDS011;3649;48.798;9.798;2022-08-21T01:46:52;3.57;;;3.27;;
7215;SDS011;3649;48.798;9.798;2022-08-21T01:49:19;4.07;;;3.77;;
7215;SDS011;3649;48.798;9.798;2022-08-21T01:51:46;4.33;;;2.80;;
7215;SDS011;3649;48.798;9.798;2022-08-21T01:54:13;5.50;;;3.47;;
7215;SDS011;3649;48.798;9.798;2022-08-21T01:56:45;3.20;;;2.73;;
7215;SDS011;3649;48.798;9.798;2022-08-21T01:59:14;3.47;;;3.10;;
7215;SDS011;3649;48.798;9.798;2022-08-21T02:01:41;4.23;;;2.93;;
7215;SDS011;3649;48.798;9.798;2022-08-21T02:04:08;4.13;;;3.20;;
7215;SDS011;3649;48.798;9.798;2022-08-21T02:06:36;4.23;;;2.90;;
7215;SDS011;3649;48.798;9.798;2022-08-21T02:09:04;6.20;;;3.57;;
7215;SDS011;3649;48.798;9.798;2022-08-21T02:11:32;4.53;;;2.67;;
7215;SDS011;3649;48.798;9.798;2022-08-21T02:13:59;5.70;;;3.50;;
7215;SDS011;3649;48.798;9.798;2022-08-21T02:16:26;6.23;;;2.67;;
7215;SDS011;3649;48.798;9.798;2022-08-21T02:18:55;3.73;;;3.00;;
7215;SDS011;3649;48.798;9.798;2022-08-21T02:21:22;7.10;;;3.20;;
7215;SDS011;3649;48.798;9.798;2022-08-21T02:23:49;3.57;;;3.00;;
7215;SDS011;3649;48.798;9.798;2022-08-21T02:26:16;5.80;;;2.83;;
7215;SDS011;3649;48.798;9.798;2022-08-21T02:28:43;4.90;;;2.83;;
7215;SDS011;3649;48.798;9.798;2022-08-21T02:31:10;9.97;;;3.13;;
7215;SDS011;3649;48.798;9.798;2022-08-21T02:33:37;10.93;;;3.33;;
7215;SDS011;3649;48.798;9.798;2022-08-21T02:36:06;3.07;;;2.77;;
7215;SDS011;3649;48.798;9.798;2022-08-21T02:38:34;4.83;;;3.03;;
7215;SDS011;3649;48.798;9.798;2022-08-21T02:41:05;3.73;;;2.83;;
7215;SDS011;3649;48.798;9.798;2022-08-21T02:43:44;7.73;;;2.80;;
7215;SDS011;3649;48.798;9.798;2022-08-21T02:46:13;3.57;;;2.53;;
7215;SDS011;3649;48.798;9.798;2022-08-21T02:48:41;4.13;;;2.90;;
7215;SDS011;3649;48.798;9.798;2022-08-21T02:51:10;3.17;;;2.60;;
7215;SDS011;3649;48.798;9.798;2022-08-21T02:53:39;5.23;;;2.77;;
7215;SDS011;3649;48.798;9.798;2022-08-21T02:56:08;4.23;;;2.27;;
7215;SDS011;3649;48.798;9.798;2022-08-21T02:58:40;6.63;;;2.33;;
7215;SDS011;3649;48.798;9.798;2022-08-21T03:01:09;9.27;;;2.27;;
7215;SDS011;3649;48.798;9.798;2022-08-21T03:03:39;2.57;;;2.37;;
7215;SDS011;3649;48.798;9.798;2022-08-21T03:06:08;6.73;;;2.60;;
7215;SDS011;3649;48.798;9.798;2022-08-21T03:08:37;3.93;;;2.83;;
7215;SDS011;3649;48.798;9.798;2022-08-21T03:11:05;4.70;;;2.70;;
7215;SDS011;3649;48.798;9.798;2022-08-21T03:13:35;4.47;;;3.17;;
7215;SDS011;3649;48.798;9.798;2022-08-21T03:16:03;9.17;;;4.67;;
7215;SDS011;3649;48.798;9.798;2022-08-21T03:18:34;5.80;;;3.77;;
7215;SDS011;3649;48.798;9.798;2022-08-21T03:21:02;9.77;;;4.60;;
7215;SDS011;3649;48.798;9.798;2022-08-21T03:23:30;5.83;;;4.27;;
7215;SDS011;3649;48.798;9.798;2022-08-21T03:25:59;4.90;;;3.90;;
7215;SDS011;3649;48.798;9.798;2022-08-21T03:28:26;5.60;;;3.50;;
7215;SDS011;3649;48.798;9.798;2022-08-21T03:30:53;3.17;;;2.97;;
7215;SDS011;3649;48.798;9.798;2022-08-21T03:33:20;3.17;;;2.93;;
7215;SDS011;3649;48.798;9.798;2022-08-21T03:35:51;4.33;;;3.17;;
7215;SDS011;3649;48.798;9.798;2022-08-21T03:38:29;3.80;;;3.13;;
7215;SDS011;3649;48.798;9.798;2022-08-21T03:40:58;5.57;;;4.13;;
7215;SDS011;3649;48.798;9.798;2022-08-21T03:43:26;6.27;;;3.63;;
7215;SDS011;3649;48.798;9.798;2022-08-21T03:45:57;5.93;;;4.03;;
7215;SDS011;3649;48.798;9.798;2022-08-21T03:48:26;7.97;;;3.23;;
7215;SDS011;3649;48.798;9.798;2022-08-21T03:50:53;8.50;;;3.60;;
7215;SDS011;3649;48.798;9.798;2022-08-21T03:53:20;4.13;;;3.83;;
7215;SDS011;3649;48.798;9.798;2022-08-21T03:55:49;7.60;;;5.13;;
7215;SDS011;3649;48.798;9.798;2022-08-21T03:58:19;7.13;;;3.70;;
7215;SDS011;3649;48.798;9.798;2022-08-21T04:00:49;6.80;;;3.93;;
7215;SDS011;3649;48.798;9.798;2022-08-21T04:03:18;11.90;;;4.17;;
7215;SDS011;3649;48.798;9.798;2022-08-21T04:05:46;6.43;;;3.60;;
7215;SDS011;3649;48.798;9.798;2022-08-21T04:08:14;5.13;;;3.80;;
7215;SDS011;3649;48.798;9.798;2022-08-21T04:10:45;3.47;;;2.90;;
7215;SDS011;3649;48.798;9.798;2022-08-21T04:13:15;4.77;;;3.00;;
7215;SDS011;3649;48.798;9.798;2022-08-21T04:15:42;3.33;;;3.03;;
7215;SDS011;3649;48.798;9.798;2022-08-21T04:18:09;4.50;;;3.00;;
7215;SDS011;3649;48.798;9.798;2022-08-21T04:20:37;6.50;;;3.13;;
7215;SDS011;3649;48.798;9.798;2022-08-21T04:23:05;8.60;;;3.80;;
7215;SDS011;3649;48.798;9.798;2022-08-21T04:25:32;6.93;;;3.53;;
7215;SDS011;3649;48.798;9.798;2022-08-21T04:27:59;4.77;;;3.70;;
7215;SDS011;3649;48.798;9.798;2022-08-21T04:30:28;6.90;;;3.80;;
7215;SDS011;3649;48.798;9.798;2022-08-21T04:32:55;4.23;;;3.70;;
7215;SDS011;3649;48.798;9.798;2022-08-21T04:35:25;4.27;;;3.77;;
7215;SDS011;3649;48.798;9.798;2022-08-21T04:37:54;3.70;;;3.40;;
7215;SDS011;3649;48.798;9.798;2022-08-21T04:40:22;4.90;;;3.53;;
7215;SDS011;3649;48.798;9.798;2022-08-21T04:42:52;5.03;;;3.60;;
7215;SDS011;3649;48.798;9.798;2022-08-21T04:45:26;6.70;;;4.13;;
7215;SDS011;3649;48.798;9.798;2022-08-21T04:47:58;5.67;;;3.80;;
7215;SDS011;3649;48.798;9.798;2022-08-21T04:50:34;7.70;;;4.53;;
7215;SDS011;3649;48.798;9.798;2022-08-21T04:56:44;6.80;;;3.53;;
7215;SDS011;3649;48.798;9.798;2022-08-21T04:58:53;6.57;;;3.73;;
7215;SDS011;3649;48.798;9.798;2022-08-21T05:01:24;5.40;;;3.60;;
7215;SDS011;3649;48.798;9.798;2022-08-21T05:03:54;5.87;;;3.73;;
7215;SDS011;3649;48.798;9.798;2022-08-21T05:06:24;5.40;;;3.33;;
7215;SDS011;3649;48.798;9.798;2022-08-21T05:08:52;3.90;;;3.60;;
7215;SDS011;3649;48.798;9.798;2022-08-21T05:11:28;4.07;;;3.17;;
7215;SDS011;3649;48.798;9.798;2022-08-21T05:13:56;5.43;;;3.73;;
7215;SDS011;3649;48.798;9.798;2022-08-21T05:16:23;8.60;;;4.37;;
7215;SDS011;3649;48.798;9.798;2022-08-21T05:19:03;6.13;;;4.40;;
7215;SDS011;3649;48.798;9.798;2022-08-21T05:21:31;9.33;;;5.10;;
7215;SDS011;3649;48.798;9.798;2022-08-21T05:23:59;12.13;;;4.73;;
7215;SDS011;3649;48.798;9.798;2022-08-21T05:26:26;5.30;;;4.37;;
7215;SDS011;3649;48.798;9.798;2022-08-21T05:28:53;7.57;;;4.87;;
7215;SDS011;3649;48.798;9.798;2022-08-21T05:31:22;7.30;;;5.10;;
7215;SDS011;3649;48.798;9.798;2022-08-21T05:33:49;7.80;;;4.87;;
7215;SDS011;3649;48.798;9.798;2022-08-21T05:36:17;8.10;;;5.23;;
7215;SDS011;3649;48.798;9.798;2022-08-21T05:38:44;7.57;;;5.20;;
7215;SDS011;3649;48.798;9.798;2022-08-21T05:41:12;6.20;;;4.60;;
7215;SDS011;3649;48.798;9.798;2022-08-21T05:43:39;7.57;;;5.30;;
7215;SDS011;3649;48.798;9.798;2022-08-21T05:46:06;4.63;;;4.20;;
7215;SDS011;3649;48.798;9.798;2022-08-21T05:48:34;4.93;;;4.43;;
7215;SDS011;3649;48.798;9.798;2022-08-21T05:51:06;6.13;;;4.37;;
7215;SDS011;3649;48.798;9.798;2022-08-21T05:53:41;5.30;;;4.07;;
7215;SDS011;3649;48.798;9.798;2022-08-21T05:56:09;10.00;;;4.30;;
7215;SDS011;3649;48.798;9.798;2022-08-21T05:58:37;5.57;;;4.40;;
7215;SDS011;3649;48.798;9.798;2022-08-21T06:01:05;5.67;;;3.00;;
7215;SDS011;3649;48.798;9.798;2022-08-21T06:03:33;3.27;;;3.07;;
7215;SDS011;3649;48.798;9.798;2022-08-21T06:06:03;3.80;;;3.40;;
7215;SDS011;3649;48.798;9.798;2022-08-21T06:08:30;3.57;;;2.97;;
7215;SDS011;3649;48.798;9.798;2022-08-21T06:10:58;3.40;;;3.10;;
7215;SDS011;3649;48.798;9.798;2022-08-21T06:13:26;5.70;;;2.50;;
7215;SDS011;3649;48.798;9.798;2022-08-21T06:16:00;3.07;;;2.73;;
7215;SDS011;3649;48.798;9.798;2022-08-21T06:18:33;2.47;;;2.27;;
7215;SDS011;3649;48.798;9.798;2022-08-21T06:21:02;2.70;;;2.50;;
7215;SDS011;3649;48.798;9.798;2022-08-21T06:23:29;2.87;;;2.40;;
7215;SDS011;3649;48.798;9.798;2022-08-21T06:25:58;5.10;;;2.20;;
7215;SDS011;3649;48.798;9.798;2022-08-21T06:28:26;2.47;;;2.30;;
7215;SDS011;3649;48.798;9.798;2022-08-21T06:30:53;2.40;;;2.20;;
7215;SDS011;3649;48.798;9.798;2022-08-21T06:33:20;2.30;;;2.20;;
7215;SDS011;3649;48.798;9.798;2022-08-21T06:35:47;2.47;;;2.13;;
7215;SDS011;3649;48.798;9.798;2022-08-21T06:38:15;2.20;;;2.10;;
7215;SDS011;3649;48.798;9.798;2022-08-21T06:40:42;2.53;;;2.07;;
7215;SDS011;3649;48.798;9.798;2022-08-21T06:43:12;2.47;;;2.37;;
7215;SDS011;3649;48.798;9.798;2022-08-21T06:45:42;3.53;;;1.87;;
7215;SDS011;3649;48.798;9.798;2022-08-21T06:48:09;3.40;;;2.20;;
7215;SDS011;3649;48.798;9.798;2022-08-21T06:50:40;2.40;;;2.20;;
7215;SDS011;3649;48.798;9.798;2022-08-21T06:53:09;5.40;;;2.50;;
7215;SDS011;3649;48.798;9.798;2022-08-21T06:55:37;2.63;;;1.93;;
7215;SDS011;3649;48.798;9.798;2022-08-21T06:58:05;2.63;;;2.07;;
7215;SDS011;3649;48.798;9.798;2022-08-21T07:00:33;3.93;;;2.47;;
7215;SDS011;3649;48.798;9.798;2022-08-21T07:03:00;2.40;;;2.20;;
7215;SDS011;3649;48.798;9.798;2022-08-21T07:05:28;6.87;;;2.23;;
7215;SDS011;3649;48.798;9.798;2022-08-21T07:07:56;2.30;;;2.20;;
7215;SDS011;3649;48.798;9.798;2022-08-21T07:10:24;2.40;;;2.20;;
7215;SDS011;3649;48.798;9.798;2022-08-21T07:12:52;2.40;;;2.20;;
7215;SDS011;3649;48.798;9.798;2022-08-21T07:15:27;3.67;;;2.50;;
7215;SDS011;3649;48.798;9.798;2022-08-21T07:17:56;5.30;;;3.13;;
7215;SDS011;3649;48.798;9.798;2022-08-21T07:20:27;2.67;;;2.47;;
7215;SDS011;3649;48.798;9.798;2022-08-21T07:22:55;2.20;;;2.00;;
7215;SDS011;3649;48.798;9.798;2022-08-21T07:25:24;5.63;;;2.30;;
7215;SDS011;3649;48.798;9.798;2022-08-21T07:27:50;3.63;;;2.27;;
7215;SDS011;3649;48.798;9.798;2022-08-21T07:30:17;2.83;;;2.60;;
7215;SDS011;3649;48.798;9.798;2022-08-21T07:32:45;2.70;;;2.40;;
7215;SDS011;3649;48.798;9.798;2022-08-21T07:35:12;2.63;;;2.00;;
7215;SDS011;3649;48.798;9.798;2022-08-21T07:37:39;4.17;;;2.10;;
7215;SDS011;3649;48.798;9.798;2022-08-21T07:40:05;4.67;;;2.03;;
7215;SDS011;3649;48.798;9.798;2022-08-21T07:42:33;5.07;;;2.40;;
7215;SDS011;3649;48.798;9.798;2022-08-21T07:45:00;4.03;;;2.30;;
7215;SDS011;3649;48.798;9.798;2022-08-21T07:47:27;2.50;;;2.30;;
7215;SDS011;3649;48.798;9.798;2022-08-21T07:50:09;2.63;;;2.40;;
7215;SDS011;3649;48.798;9.798;2022-08-21T07:52:37;4.17;;;2.60;;
7215;SDS011;3649;48.798;9.798;2022-08-21T07:55:05;4.30;;;2.57;;
7215;SDS011;3649;48.798;9.798;2022-08-21T07:57:34;3.90;;;2.60;;
7215;SDS011;3649;48.798;9.798;2022-08-21T08:00:01;4.00;;;2.67;;
7215;SDS011;3649;48.798;9.798;2022-08-21T08:02:30;5.63;;;2.93;;
7215;SDS011;3649;48.798;9.798;2022-08-21T08:05:01;5.60;;;2.70;;
7215;SDS011;3649;48.798;9.798;2022-08-21T08:07:30;4.37;;;3.27;;
7215;SDS011;3649;48.798;9.798;2022-08-21T08:09:57;8.57;;;3.27;;
7215;SDS011;3649;48.798;9.798;2022-08-21T08:12:24;8.87;;;2.70;;
7215;SDS011;3649;48.798;9.798;2022-08-21T08:14:59;4.60;;;2.93;;
7215;SDS011;3649;48.798;9.798;2022-08-21T08:17:27;3.23;;;2.70;;
7215;SDS011;3649;48.798;9.798;2022-08-21T08:19:54;7.10;;;3.10;;
7215;SDS011;3649;48.798;9.798;2022-08-21T08:22:22;5.73;;;2.50;;
7215;SDS011;3649;48.798;9.798;2022-08-21T08:24:53;6.27;;;2.80;;
7215;SDS011;3649;48.798;9.798;2022-08-21T08:27:21;4.60;;;3.30;;
7215;SDS011;3649;48.798;9.798;2022-08-21T08:29:48;7.17;;;3.20;;
7215;SDS011;3649;48.798;9.798;2022-08-21T08:32:15;8.10;;;3.37;;
7215;SDS011;3649;48.798;9.798;2022-08-21T08:34:42;2.90;;;2.53;;
7215;SDS011;3649;48.798;9.798;2022-08-21T08:37:09;3.53;;;3.00;;
7215;SDS011;3649;48.798;9.798;2022-08-21T08:39:37;3.70;;;3.07;;
7215;SDS011;3649;48.798;9.798;2022-08-21T08:42:06;4.60;;;2.97;;
7215;SDS011;3649;48.798;9.798;2022-08-21T08:45:00;4.20;;;2.90;;
7215;SDS011;3649;48.798;9.798;2022-08-21T08:47:36;3.40;;;3.10;;
7215;SDS011;3649;48.798;9.798;2022-08-21T08:53:00;4.93;;;3.27;;
7215;SDS011;3649;48.798;9.798;2022-08-21T08:55:36;3.50;;;3.20;;
7215;SDS011;3649;48.798;9.798;2022-08-21T08:58:22;3.30;;;3.00;;
7215;SDS011;3649;48.798;9.798;2022-08-21T09:00:53;3.20;;;2.90;;
7215;SDS011;3649;48.798;9.798;2022-08-21T09:03:25;4.30;;;3.10;;
7215;SDS011;3649;48.798;9.798;2022-08-21T09:06:05;4.07;;;3.13;;
7215;SDS011;3649;48.798;9.798;2022-08-21T09:09:07;4.40;;;3.30;;
7215;SDS011;3649;48.798;9.798;2022-08-21T09:11:59;3.13;;;2.90;;
7215;SDS011;3649;48.798;9.798;2022-08-21T09:17:49;3.93;;;3.50;;
7215;SDS011;3649;48.798;9.798;2022-08-21T09:23:50;5.37;;;3.67;;
7215;SDS011;3649;48.798;9.798;2022-08-21T09:26:43;9.83;;;3.50;;
7215;SDS011;3649;48.798;9.798;2022-08-21T09:29:21;5.90;;;3.50;;
7215;SDS011;3649;48.798;9.798;2022-08-21T09:31:50;3.77;;;3.23;;
7215;SDS011;3649;48.798;9.798;2022-08-21T09:34:23;5.07;;;3.37;;
7215;SDS011;3649;48.798;9.798;2022-08-21T09:36:52;3.43;;;3.07;;
7215;SDS011;3649;48.798;9.798;2022-08-21T09:39:30;4.03;;;3.03;;
7215;SDS011;3649;48.798;9.798;2022-08-21T09:42:07;5.10;;;3.30;;
7215;SDS011;3649;48.798;9.798;2022-08-21T09:44:37;4.47;;;3.27;;
7215;SDS011;3649;48.798;9.798;2022-08-21T09:47:10;4.13;;;3.27;;
7215;SDS011;3649;48.798;9.798;2022-08-21T09:49:39;7.43;;;3.30;;
7215;SDS011;3649;48.798;9.798;2022-08-21T09:52:19;4.17;;;3.07;;
7215;SDS011;3649;48.798;9.798;2022-08-21T09:54:50;5.63;;;2.97;;
7215;SDS011;3649;48.798;9.798;2022-08-21T09:57:24;4.50;;;3.23;;
7215;SDS011;3649;48.798;9.798;2022-08-21T10:02:50;9.40;;;3.23;;
7215;SDS011;3649;48.798;9.798;2022-08-21T10:07:45;7.97;;;3.57;;
7215;SDS011;3649;48.798;9.798;2022-08-21T10:13:13;4.50;;;2.73;;
7215;SDS011;3649;48.798;9.798;2022-08-21T10:19:40;12.40;;;3.70;;
7215;SDS011;3649;48.798;9.798;2022-08-21T10:24:36;6.97;;;3.10;;
7215;SDS011;3649;48.798;9.798;2022-08-21T10:35:31;9.07;;;3.20;;
7215;SDS011;3649;48.798;9.798;2022-08-21T10:46:47;4.87;;;2.80;;
7215;SDS011;3649;48.798;9.798;2022-08-21T10:55:19;7.60;;;2.73;;
7215;SDS011;3649;48.798;9.798;2022-08-21T10:57:54;6.30;;;3.07;;
7215;SDS011;3649;48.798;9.798;2022-08-21T11:00:48;9.27;;;3.50;;
7215;SDS011;3649;48.798;9.798;2022-08-21T11:03:32;4.37;;;3.23;;
7215;SDS011;3649;48.798;9.798;2022-08-21T11:08:38;4.60;;;2.97;;
7215;SDS011;3649;48.798;9.798;2022-08-21T11:14:03;5.60;;;3.00;;
7215;SDS011;3649;48.798;9.798;2022-08-21T11:16:43;6.93;;;3.67;;
7215;SDS011;3649;48.798;9.798;2022-08-21T11:19:35;5.90;;;2.80;;
7215;SDS011;3649;48.798;9.798;2022-08-21T11:24:57;5.07;;;3.57;;
7215;SDS011;3649;48.798;9.798;2022-08-21T11:27:45;8.63;;;3.43;;
7215;SDS011;3649;48.798;9.798;2022-08-21T11:30:13;5.30;;;3.43;;
7215;SDS011;3649;48.798;9.798;2022-08-21T11:41:05;7.80;;;3.23;;
7215;SDS011;3649;48.798;9.798;2022-08-21T11:43:45;7.77;;;2.77;;
7215;SDS011;3649;48.798;9.798;2022-08-21T11:46:28;5.00;;;3.20;;
7215;SDS011;3649;48.798;9.798;2022-08-21T11:51:41;5.07;;;3.30;;
7215;SDS011;3649;48.798;9.798;2022-08-21T11:54:34;6.23;;;3.10;;
7215;SDS011;3649;48.798;9.798;2022-08-21T11:57:24;4.20;;;2.97;;
7215;SDS011;3649;48.798;9.798;2022-08-21T12:02:36;6.83;;;3.73;;
7215;SDS011;3649;48.798;9.798;2022-08-21T12:05:08;3.60;;;3.27;;
7215;SDS011;3649;48.798;9.798;2022-08-21T12:07:39;5.80;;;3.00;;
7215;SDS011;3649;48.798;9.798;2022-08-21T12:10:10;3.30;;;3.10;;
7215;SDS011;3649;48.798;9.798;2022-08-21T12:12:43;7.93;;;3.00;;
7215;SDS011;3649;48.798;9.798;2022-08-21T12:18:30;4.87;;;3.00;;
7215;SDS011;3649;48.798;9.798;2022-08-21T12:20:59;6.50;;;3.40;;
7215;SDS011;3649;48.798;9.798;2022-08-21T12:23:48;6.03;;;2.90;;
7215;SDS011;3649;48.798;9.798;2022-08-21T12:26:47;4.27;;;3.20;;
7215;SDS011;3649;48.798;9.798;2022-08-21T12:29:23;4.37;;;3.10;;
7215;SDS011;3649;48.798;9.798;2022-08-21T12:32:18;3.80;;;3.07;;
7215;SDS011;3649;48.798;9.798;2022-08-21T12:35:02;3.13;;;2.43;;
7215;SDS011;3649;48.798;9.798;2022-08-21T12:37:52;5.30;;;3.00;;
7215;SDS011;3649;48.798;9.798;2022-08-21T12:40:43;4.27;;;2.90;;
7215;SDS011;3649;48.798;9.798;2022-08-21T12:43:18;4.70;;;3.47;;
7215;SDS011;3649;48.798;9.798;2022-08-21T12:45:51;8.67;;;3.03;;
7215;SDS011;3649;48.798;9.798;2022-08-21T12:48:31;3.17;;;2.70;;
7215;SDS011;3649;48.798;9.798;2022-08-21T12:51:23;4.53;;;3.13;;
7215;SDS011;3649;48.798;9.798;2022-08-21T12:53:55;3.13;;;2.70;;
7215;SDS011;3649;48.798;9.798;2022-08-21T12:56:25;4.27;;;2.63;;
7215;SDS011;3649;48.798;9.798;2022-08-21T12:58:55;4.10;;;2.90;;
7215;SDS011;3649;48.798;9.798;2022-08-21T13:01:48;6.43;;;3.00;;
7215;SDS011;3649;48.798;9.798;2022-08-21T13:04:19;4.07;;;2.77;;
7215;SDS011;3649;48.798;9.798;2022-08-21T13:06:53;6.67;;;3.20;;
7215;SDS011;3649;48.798;9.798;2022-08-21T13:09:24;5.70;;;2.63;;
7215;SDS011;3649;48.798;9.798;2022-08-21T13:11:54;6.50;;;3.17;;
7215;SDS011;3649;48.798;9.798;2022-08-21T13:14:27;5.87;;;2.90;;
7215;SDS011;3649;48.798;9.798;2022-08-21T13:16:58;4.80;;;2.73;;
7215;SDS011;3649;48.798;9.798;2022-08-21T13:19:26;3.30;;;2.77;;
7215;SDS011;3649;48.798;9.798;2022-08-21T13:21:55;5.33;;;3.13;;
7215;SDS011;3649;48.798;9.798;2022-08-21T13:24:24;6.40;;;3.30;;
7215;SDS011;3649;48.798;9.798;2022-08-21T13:27:19;5.60;;;3.00;;
7215;SDS011;3649;48.798;9.798;2022-08-21T13:30:02;3.90;;;2.80;;
7215;SDS011;3649;48.798;9.798;2022-08-21T13:32:36;5.00;;;2.80;;
7215;SDS011;3649;48.798;9.798;2022-08-21T13:35:11;5.37;;;2.93;;
7215;SDS011;3649;48.798;9.798;2022-08-21T13:37:42;4.67;;;2.77;;
7215;SDS011;3649;48.798;9.798;2022-08-21T13:40:12;2.90;;;2.60;;
7215;SDS011;3649;48.798;9.798;2022-08-21T13:42:43;5.07;;;3.03;;
7215;SDS011;3649;48.798;9.798;2022-08-21T13:45:15;7.80;;;2.63;;
7215;SDS011;3649;48.798;9.798;2022-08-21T13:47:45;4.00;;;2.93;;
7215;SDS011;3649;48.798;9.798;2022-08-21T13:50:15;3.40;;;2.90;;
7215;SDS011;3649;48.798;9.798;2022-08-21T13:52:55;4.27;;;3.03;;
7215;SDS011;3649;48.798;9.798;2022-08-21T13:55:25;4.17;;;2.77;;
7215;SDS011;3649;48.798;9.798;2022-08-21T13:58:05;6.17;;;3.13;;
7215;SDS011;3649;48.798;9.798;2022-08-21T14:00:34;5.73;;;2.70;;
7215;SDS011;3649;48.798;9.798;2022-08-21T14:03:10;4.67;;;2.73;;
7215;SDS011;3649;48.798;9.798;2022-08-21T14:05:45;5.23;;;2.93;;
7215;SDS011;3649;48.798;9.798;2022-08-21T14:08:14;3.67;;;2.47;;
7215;SDS011;3649;48.798;9.798;2022-08-21T14:10:55;4.10;;;2.40;;
7215;SDS011;3649;48.798;9.798;2022-08-21T14:13:27;9.03;;;2.73;;
7215;SDS011;3649;48.798;9.798;2022-08-21T14:16:03;3.17;;;2.23;;
7215;SDS011;3649;48.798;9.798;2022-08-21T14:18:45;7.43;;;2.63;;
7215;SDS011;3649;48.798;9.798;2022-08-21T14:21:22;3.67;;;2.70;;
7215;SDS011;3649;48.798;9.798;2022-08-21T14:24:04;2.93;;;2.63;;
7215;SDS011;3649;48.798;9.798;2022-08-21T14:26:34;4.73;;;3.07;;
7215;SDS011;3649;48.798;9.798;2022-08-21T14:29:05;2.97;;;2.53;;
7215;SDS011;3649;48.798;9.798;2022-08-21T14:31:35;5.90;;;2.80;;
7215;SDS011;3649;48.798;9.798;2022-08-21T14:34:09;2.20;;;2.07;;
7215;SDS011;3649;48.798;9.798;2022-08-21T14:36:45;3.53;;;2.40;;
7215;SDS011;3649;48.798;9.798;2022-08-21T14:39:13;5.53;;;2.43;;
7215;SDS011;3649;48.798;9.798;2022-08-21T14:41:40;4.57;;;2.43;;
7215;SDS011;3649;48.798;9.798;2022-08-21T14:44:08;3.37;;;2.30;;
7215;SDS011;3649;48.798;9.798;2022-08-21T14:46:36;2.97;;;2.70;;
7215;SDS011;3649;48.798;9.798;2022-08-21T14:49:20;3.47;;;2.23;;
7215;SDS011;3649;48.798;9.798;2022-08-21T14:51:47;3.10;;;2.80;;
7215;SDS011;3649;48.798;9.798;2022-08-21T14:54:19;4.83;;;2.33;;
7215;SDS011;3649;48.798;9.798;2022-08-21T14:56:53;2.33;;;2.13;;
7215;SDS011;3649;48.798;9.798;2022-08-21T14:59:21;4.20;;;2.47;;
7215;SDS011;3649;48.798;9.798;2022-08-21T15:01:48;3.77;;;2.30;;
7215;SDS011;3649;48.798;9.798;2022-08-21T15:04:15;3.53;;;2.20;;
7215;SDS011;3649;48.798;9.798;2022-08-21T15:06:43;2.83;;;2.30;;
7215;SDS011;3649;48.798;9.798;2022-08-21T15:09:09;3.23;;;2.50;;
7215;SDS011;3649;48.798;9.798;2022-08-21T15:11:36;4.57;;;2.70;;
7215;SDS011;3649;48.798;9.798;2022-08-21T15:14:08;2.50;;;2.30;;
7215;SDS011;3649;48.798;9.798;2022-08-21T15:16:41;3.57;;;2.67;;
7215;SDS011;3649;48.798;9.798;2022-08-21T15:19:08;4.90;;;2.77;;
7215;SDS011;3649;48.798;9.798;2022-08-21T15:21:35;5.67;;;2.70;;
7215;SDS011;3649;48.798;9.798;2022-08-21T15:24:01;3.03;;;2.20;;
7215;SDS011;3649;48.798;9.798;2022-08-21T15:26:29;5.17;;;2.73;;
7215;SDS011;3649;48.798;9.798;2022-08-21T15:28:56;3.90;;;2.40;;
7215;SDS011;3649;48.798;9.798;2022-08-21T15:31:26;3.07;;;2.30;;
7215;SDS011;3649;48.798;9.798;2022-08-21T15:33:54;3.47;;;2.43;;
7215;SDS011;3649;48.798;9.798;2022-08-21T15:36:21;3.93;;;2.60;;
7215;SDS011;3649;48.798;9.798;2022-08-21T15:38:48;6.70;;;2.60;;
7215;SDS011;3649;48.798;9.798;2022-08-21T15:41:16;3.97;;;2.60;;
7215;SDS011;3649;48.798;9.798;2022-08-21T15:43:45;6.73;;;2.23;;
7215;SDS011;3649;48.798;9.798;2022-08-21T15:46:18;4.43;;;2.73;;
7215;SDS011;3649;48.798;9.798;2022-08-21T15:48:46;4.73;;;2.70;;
7215;SDS011;3649;48.798;9.798;2022-08-21T15:51:14;3.53;;;2.50;;
7215;SDS011;3649;48.798;9.798;2022-08-21T15:53:42;4.17;;;2.67;;
7215;SDS011;3649;48.798;9.798;2022-08-21T15:56:21;3.87;;;2.37;;
7215;SDS011;3649;48.798;9.798;2022-08-21T15:58:51;6.67;;;3.20;;
7215;SDS011;3649;48.798;9.798;2022-08-21T16:01:20;2.77;;;2.57;;
7215;SDS011;3649;48.798;9.798;2022-08-21T16:03:48;2.80;;;2.47;;
7215;SDS011;3649;48.798;9.798;2022-08-21T16:06:16;2.70;;;2.40;;
7215;SDS011;3649;48.798;9.798;2022-08-21T16:09:03;3.47;;;2.37;;
7215;SDS011;3649;48.798;9.798;2022-08-21T16:11:30;4.93;;;2.63;;
7215;SDS011;3649;48.798;9.798;2022-08-21T16:13:57;5.73;;;2.80;;
7215;SDS011;3649;48.798;9.798;2022-08-21T16:16:24;5.43;;;3.60;;
7215;SDS011;3649;48.798;9.798;2022-08-21T16:18:51;7.20;;;4.10;;
7215;SDS011;3649;48.798;9.798;2022-08-21T16:21:20;4.07;;;3.43;;
7215;SDS011;3649;48.798;9.798;2022-08-21T16:23:47;6.40;;;2.50;;
7215;SDS011;3649;48.798;9.798;2022-08-21T16:26:14;6.03;;;2.80;;
7215;SDS011;3649;48.798;9.798;2022-08-21T16:28:43;5.50;;;2.67;;
7215;SDS011;3649;48.798;9.798;2022-08-21T16:31:13;5.00;;;2.70;;
7215;SDS011;3649;48.798;9.798;2022-08-21T16:33:42;4.97;;;2.40;;
7215;SDS011;3649;48.798;9.798;2022-08-21T16:36:12;5.43;;;3.03;;
7215;SDS011;3649;48.798;9.798;2022-08-21T16:38:39;4.33;;;2.20;;
7215;SDS011;3649;48.798;9.798;2022-08-21T16:41:07;4.30;;;2.27;;
7215;SDS011;3649;48.798;9.798;2022-08-21T16:43:37;6.10;;;3.07;;
7215;SDS011;3649;48.798;9.798;2022-08-21T16:46:06;4.17;;;3.10;;
7215;SDS011;3649;48.798;9.798;2022-08-21T16:48:35;3.10;;;2.73;;
7215;SDS011;3649;48.798;9.798;2022-08-21T16:51:02;5.83;;;2.90;;
7215;SDS011;3649;48.798;9.798;2022-08-21T16:53:30;3.43;;;2.77;;
7215;SDS011;3649;48.798;9.798;2022-08-21T16:55:57;4.90;;;2.50;;